sensor_id;sensor_type;location;lat;lon;timestamp;P1;durP1;ratioP1;P2;durP2;ratioP2
12228;SDS011;6177;52.402;9.800;2022-11-15T00:02:21;23.43;;;17.90;;
12228;SDS011;6177;52.402;9.800;2022-11-15T00:05:24;20.13;;;17.57;;
12228;SDS011;6177;52.402;9.800;2022-11-15T00:08:29;20.53;;;16.60;;
12228;SDS011;6177;52.402;9.800;2022-11-15T00:11:36;18.50;;;16.60;;
12228;SDS011;6177;52.402;9.800;2022-11-15T00:14:39;20.03;;;17.60;;
12228;SDS011;6177;52.402;9.800;2022-11-15T00:17:42;17.50;;;15.77;;
12228;SDS011;6177;52.402;9.800;2022-11-15T00:20:45;18.57;;;16.07;;
12228;SDS011;6177;52.402;9.800;2022-11-15T00:23:48;16.57;;;14.80;;
12228;SDS011;6177;52.402;9.800;2022-11-15T00:26:52;18.43;;;15.70;;
12228;SDS011;6177;52.402;9.800;2022-11-15T00:29:55;16.60;;;14.93;;
12228;SDS011;6177;52.402;9.800;2022-11-15T00:33:01;15.87;;;14.20;;
12228;SDS011;6177;52.402;9.800;2022-11-15T00:36:08;15.80;;;14.13;;
12228;SDS011;6177;52.402;9.800;2022-11-15T00:39:13;15.53;;;13.90;;
12228;SDS011;6177;52.402;9.800;2022-11-15T00:42:16;14.80;;;13.27;;
12228;SDS011;6177;52.402;9.800;2022-11-15T00:45:19;15.07;;;13.60;;
12228;SDS011;6177;52.402;9.800;2022-11-15T00:48:22;15.40;;;13.80;;
12228;SDS011;6177;52.402;9.800;2022-11-15T00:51:25;13.47;;;12.17;;
12228;SDS011;6177;52.402;9.800;2022-11-15T00:54:28;13.20;;;12.03;;
12228;SDS011;6177;52.402;9.800;2022-11-15T00:57:32;14.17;;;12.77;;
12228;SDS011;6177;52.402;9.800;2022-11-15T01:00:37;12.60;;;11.53;;
12228;SDS011;6177;52.402;9.800;2022-11-15T01:03:40;13.13;;;11.90;;
12228;SDS011;6177;52.402;9.800;2022-11-15T01:06:44;12.53;;;11.40;;
12228;SDS011;6177;52.402;9.800;2022-11-15T01:09:47;13.90;;;10.60;;
12228;SDS011;6177;52.402;9.800;2022-11-15T01:12:50;12.30;;;11.10;;
12228;SDS011;6177;52.402;9.800;2022-11-15T01:15:53;11.40;;;10.40;;
12228;SDS011;6177;52.402;9.800;2022-11-15T01:18:57;11.07;;;10.07;;
12228;SDS011;6177;52.402;9.800;2022-11-15T01:22:00;12.07;;;10.80;;
12228;SDS011;6177;52.402;9.800;2022-11-15T01:25:03;12.07;;;9.83;;
12228;SDS011;6177;52.402;9.800;2022-11-15T01:28:07;12.73;;;10.70;;
12228;SDS011;6177;52.402;9.800;2022-11-15T01:31:12;11.60;;;10.50;;
12228;SDS011;6177;52.402;9.800;2022-11-15T01:34:17;10.83;;;9.50;;
12228;SDS011;6177;52.402;9.800;2022-11-15T01:37:20;10.10;;;9.20;;
12228;SDS011;6177;52.402;9.800;2022-11-15T01:40:24;9.77;;;8.97;;
12228;SDS011;6177;52.402;9.800;2022-11-15T01:43:31;11.80;;;9.83;;
12228;SDS011;6177;52.402;9.800;2022-11-15T01:46:38;10.23;;;9.23;;
12228;SDS011;6177;52.402;9.800;2022-11-15T01:49:49;10.60;;;9.60;;
12228;SDS011;6177;52.402;9.800;2022-11-15T01:52:57;11.33;;;10.30;;
12228;SDS011;6177;52.402;9.800;2022-11-15T01:56:02;11.90;;;10.87;;
12228;SDS011;6177;52.402;9.800;2022-11-15T01:59:07;12.00;;;10.80;;
12228;SDS011;6177;52.402;9.800;2022-11-15T02:02:12;12.50;;;11.20;;
12228;SDS011;6177;52.402;9.800;2022-11-15T02:05:16;13.63;;;12.27;;
12228;SDS011;6177;52.402;9.800;2022-11-15T02:08:20;14.80;;;13.27;;
12228;SDS011;6177;52.402;9.800;2022-11-15T02:11:23;13.73;;;12.43;;
12228;SDS011;6177;52.402;9.800;2022-11-15T02:14:27;13.10;;;11.80;;
12228;SDS011;6177;52.402;9.800;2022-11-15T02:17:40;11.83;;;10.73;;
12228;SDS011;6177;52.402;9.800;2022-11-15T02:21:08;13.67;;;12.23;;
12228;SDS011;6177;52.402;9.800;2022-11-15T02:41:02;13.10;;;11.80;;
12228;SDS011;6177;52.402;9.800;2022-11-15T02:44:26;12.90;;;11.70;;
12228;SDS011;6177;52.402;9.800;2022-11-15T02:47:43;13.43;;;12.13;;
12228;SDS011;6177;52.402;9.800;2022-11-15T02:50:51;15.27;;;11.73;;
12228;SDS011;6177;52.402;9.800;2022-11-15T02:53:54;12.67;;;11.67;;
12228;SDS011;6177;52.402;9.800;2022-11-15T02:57:02;12.60;;;11.33;;
12228;SDS011;6177;52.402;9.800;2022-11-15T03:03:24;12.70;;;11.57;;
12228;SDS011;6177;52.402;9.800;2022-11-15T03:06:58;13.50;;;12.13;;
12228;SDS011;6177;52.402;9.800;2022-11-15T03:20:08;14.00;;;12.67;;
12228;SDS011;6177;52.402;9.800;2022-11-15T03:23:14;14.63;;;12.33;;
12228;SDS011;6177;52.402;9.800;2022-11-15T03:26:18;14.97;;;13.47;;
12228;SDS011;6177;52.402;9.800;2022-11-15T03:29:24;13.60;;;12.20;;
12228;SDS011;6177;52.402;9.800;2022-11-15T03:32:34;17.27;;;13.53;;
12228;SDS011;6177;52.402;9.800;2022-11-15T03:35:42;15.10;;;13.80;;
12228;SDS011;6177;52.402;9.800;2022-11-15T03:38:47;14.80;;;13.40;;
12228;SDS011;6177;52.402;9.800;2022-11-15T03:45:19;14.70;;;13.20;;
12228;SDS011;6177;52.402;9.800;2022-11-15T03:48:35;14.73;;;12.83;;
12228;SDS011;6177;52.402;9.800;2022-11-15T03:51:43;15.17;;;13.60;;
12228;SDS011;6177;52.402;9.800;2022-11-15T03:54:51;15.30;;;13.63;;
12228;SDS011;6177;52.402;9.800;2022-11-15T03:57:57;13.50;;;12.17;;
12228;SDS011;6177;52.402;9.800;2022-11-15T04:01:02;13.43;;;12.23;;
12228;SDS011;6177;52.402;9.800;2022-11-15T04:04:06;12.33;;;11.13;;
12228;SDS011;6177;52.402;9.800;2022-11-15T04:07:09;13.07;;;11.80;;
12228;SDS011;6177;52.402;9.800;2022-11-15T04:10:13;13.37;;;12.13;;
12228;SDS011;6177;52.402;9.800;2022-11-15T04:13:16;15.77;;;13.33;;
12228;SDS011;6177;52.402;9.800;2022-11-15T04:16:19;13.53;;;12.33;;
12228;SDS011;6177;52.402;9.800;2022-11-15T04:19:22;12.10;;;10.73;;
12228;SDS011;6177;52.402;9.800;2022-11-15T04:22:44;13.50;;;12.10;;
12228;SDS011;6177;52.402;9.800;2022-11-15T04:26:10;11.13;;;10.13;;
12228;SDS011;6177;52.402;9.800;2022-11-15T04:29:17;12.07;;;10.97;;
12228;SDS011;6177;52.402;9.800;2022-11-15T04:32:38;12.13;;;10.90;;
12228;SDS011;6177;52.402;9.800;2022-11-15T04:35:42;12.50;;;11.33;;
12228;SDS011;6177;52.402;9.800;2022-11-15T04:38:45;12.00;;;10.57;;
12228;SDS011;6177;52.402;9.800;2022-11-15T04:41:48;12.90;;;11.47;;
12228;SDS011;6177;52.402;9.800;2022-11-15T04:44:51;13.13;;;10.50;;
12228;SDS011;6177;52.402;9.800;2022-11-15T04:47:54;10.37;;;9.37;;
12228;SDS011;6177;52.402;9.800;2022-11-15T04:50:57;10.87;;;8.93;;
12228;SDS011;6177;52.402;9.800;2022-11-15T04:54:01;8.30;;;7.70;;
12228;SDS011;6177;52.402;9.800;2022-11-15T04:57:04;8.17;;;6.93;;
12228;SDS011;6177;52.402;9.800;2022-11-15T05:00:08;7.40;;;6.67;;
12228;SDS011;6177;52.402;9.800;2022-11-15T05:03:14;7.20;;;6.60;;
12228;SDS011;6177;52.402;9.800;2022-11-15T05:06:36;6.53;;;5.80;;
12228;SDS011;6177;52.402;9.800;2022-11-15T05:09:39;5.50;;;5.00;;
12228;SDS011;6177;52.402;9.800;2022-11-15T05:12:42;5.53;;;5.13;;
12228;SDS011;6177;52.402;9.800;2022-11-15T05:15:46;5.60;;;5.10;;
12228;SDS011;6177;52.402;9.800;2022-11-15T05:18:50;5.67;;;5.17;;
12228;SDS011;6177;52.402;9.800;2022-11-15T05:21:54;5.13;;;4.73;;
12228;SDS011;6177;52.402;9.800;2022-11-15T05:24:58;5.90;;;5.40;;
12228;SDS011;6177;52.402;9.800;2022-11-15T05:28:02;5.80;;;5.40;;
12228;SDS011;6177;52.402;9.800;2022-11-15T05:34:11;7.00;;;6.27;;
12228;SDS011;6177;52.402;9.800;2022-11-15T05:37:15;6.67;;;6.07;;
12228;SDS011;6177;52.402;9.800;2022-11-15T05:40:19;7.27;;;6.57;;
12228;SDS011;6177;52.402;9.800;2022-11-15T05:43:22;7.20;;;6.63;;
12228;SDS011;6177;52.402;9.800;2022-11-15T05:46:26;6.97;;;6.27;;
12228;SDS011;6177;52.402;9.800;2022-11-15T05:49:31;7.07;;;6.47;;
12228;SDS011;6177;52.402;9.800;2022-11-15T05:52:38;7.73;;;6.67;;
12228;SDS011;6177;52.402;9.800;2022-11-15T05:55:41;8.57;;;6.03;;
12228;SDS011;6177;52.402;9.800;2022-11-15T05:58:44;7.13;;;6.30;;
12228;SDS011;6177;52.402;9.800;2022-11-15T06:01:48;6.80;;;5.60;;
12228;SDS011;6177;52.402;9.800;2022-11-15T06:04:51;6.57;;;6.07;;
12228;SDS011;6177;52.402;9.800;2022-11-15T06:07:58;6.33;;;5.90;;
12228;SDS011;6177;52.402;9.800;2022-11-15T06:11:03;8.20;;;5.97;;
12228;SDS011;6177;52.402;9.800;2022-11-15T06:14:08;6.77;;;5.93;;
12228;SDS011;6177;52.402;9.800;2022-11-15T06:17:11;6.87;;;5.20;;
12228;SDS011;6177;52.402;9.800;2022-11-15T06:20:14;6.27;;;5.77;;
12228;SDS011;6177;52.402;9.800;2022-11-15T06:23:17;6.13;;;5.73;;
12228;SDS011;6177;52.402;9.800;2022-11-15T06:26:21;6.13;;;5.63;;
12228;SDS011;6177;52.402;9.800;2022-11-15T06:29:23;6.43;;;5.83;;
12228;SDS011;6177;52.402;9.800;2022-11-15T06:32:28;6.53;;;5.87;;
12228;SDS011;6177;52.402;9.800;2022-11-15T06:35:33;5.73;;;5.33;;
12228;SDS011;6177;52.402;9.800;2022-11-15T06:38:37;5.77;;;5.23;;
12228;SDS011;6177;52.402;9.800;2022-11-15T06:41:40;6.97;;;6.10;;
12228;SDS011;6177;52.402;9.800;2022-11-15T06:44:43;6.33;;;5.73;;
12228;SDS011;6177;52.402;9.800;2022-11-15T06:47:47;6.87;;;6.37;;
12228;SDS011;6177;52.402;9.800;2022-11-15T06:50:54;6.20;;;5.47;;
12228;SDS011;6177;52.402;9.800;2022-11-15T06:53:58;6.07;;;5.73;;
12228;SDS011;6177;52.402;9.800;2022-11-15T06:57:01;8.80;;;6.47;;
12228;SDS011;6177;52.402;9.800;2022-11-15T07:00:07;7.43;;;6.70;;
12228;SDS011;6177;52.402;9.800;2022-11-15T07:03:11;7.13;;;6.53;;
12228;SDS011;6177;52.402;9.800;2022-11-15T07:06:14;6.53;;;5.83;;
12228;SDS011;6177;52.402;9.800;2022-11-15T07:09:17;6.90;;;6.30;;
12228;SDS011;6177;52.402;9.800;2022-11-15T07:12:21;6.67;;;6.10;;
12228;SDS011;6177;52.402;9.800;2022-11-15T07:15:25;6.77;;;6.17;;
12228;SDS011;6177;52.402;9.800;2022-11-15T07:18:28;5.43;;;5.03;;
12228;SDS011;6177;52.402;9.800;2022-11-15T07:21:31;5.97;;;5.47;;
12228;SDS011;6177;52.402;9.800;2022-11-15T07:24:35;5.33;;;4.93;;
12228;SDS011;6177;52.402;9.800;2022-11-15T07:27:38;6.13;;;5.43;;
12228;SDS011;6177;52.402;9.800;2022-11-15T07:30:41;5.80;;;5.33;;
12228;SDS011;6177;52.402;9.800;2022-11-15T07:33:44;5.70;;;5.40;;
12228;SDS011;6177;52.402;9.800;2022-11-15T07:36:47;5.40;;;5.10;;
12228;SDS011;6177;52.402;9.800;2022-11-15T07:39:50;5.87;;;5.27;;
12228;SDS011;6177;52.402;9.800;2022-11-15T07:43:01;8.97;;;8.10;;
12228;SDS011;6177;52.402;9.800;2022-11-15T07:46:06;6.17;;;5.67;;
12228;SDS011;6177;52.402;9.800;2022-11-15T07:49:11;5.90;;;5.30;;
12228;SDS011;6177;52.402;9.800;2022-11-15T07:52:14;5.40;;;4.90;;
12228;SDS011;6177;52.402;9.800;2022-11-15T07:55:18;5.90;;;5.60;;
12228;SDS011;6177;52.402;9.800;2022-11-15T07:58:21;6.17;;;5.50;;
12228;SDS011;6177;52.402;9.800;2022-11-15T08:01:24;4.90;;;4.60;;
12228;SDS011;6177;52.402;9.800;2022-11-15T08:04:27;4.50;;;4.10;;
12228;SDS011;6177;52.402;9.800;2022-11-15T08:07:31;5.27;;;4.87;;
12228;SDS011;6177;52.402;9.800;2022-11-15T08:10:34;5.43;;;5.03;;
12228;SDS011;6177;52.402;9.800;2022-11-15T08:13:38;5.63;;;5.07;;
12228;SDS011;6177;52.402;9.800;2022-11-15T08:16:41;5.37;;;5.00;;
12228;SDS011;6177;52.402;9.800;2022-11-15T08:19:44;5.20;;;4.80;;
12228;SDS011;6177;52.402;9.800;2022-11-15T08:22:48;4.97;;;4.50;;
12228;SDS011;6177;52.402;9.800;2022-11-15T08:25:51;4.80;;;4.40;;
12228;SDS011;6177;52.402;9.800;2022-11-15T08:28:54;4.77;;;4.43;;
12228;SDS011;6177;52.402;9.800;2022-11-15T08:31:58;5.10;;;4.60;;
12228;SDS011;6177;52.402;9.800;2022-11-15T08:35:01;4.83;;;4.50;;
12228;SDS011;6177;52.402;9.800;2022-11-15T08:38:04;4.23;;;3.93;;
12228;SDS011;6177;52.402;9.800;2022-11-15T08:41:09;4.90;;;4.50;;
12228;SDS011;6177;52.402;9.800;2022-11-15T08:44:34;4.30;;;4.00;;
12228;SDS011;6177;52.402;9.800;2022-11-15T08:47:38;5.50;;;4.33;;
12228;SDS011;6177;52.402;9.800;2022-11-15T08:50:41;4.10;;;3.70;;
12228;SDS011;6177;52.402;9.800;2022-11-15T08:53:46;4.60;;;4.20;;
12228;SDS011;6177;52.402;9.800;2022-11-15T08:56:46;4.03;;;3.80;;
12228;SDS011;6177;52.402;9.800;2022-11-15T08:59:50;3.93;;;3.73;;
12228;SDS011;6177;52.402;9.800;2022-11-15T09:02:53;3.70;;;3.40;;
12228;SDS011;6177;52.402;9.800;2022-11-15T09:05:57;3.70;;;3.40;;
12228;SDS011;6177;52.402;9.800;2022-11-15T09:09:02;4.10;;;3.73;;
12228;SDS011;6177;52.402;9.800;2022-11-15T09:12:06;4.47;;;4.07;;
12228;SDS011;6177;52.402;9.800;2022-11-15T09:15:10;3.80;;;3.57;;
12228;SDS011;6177;52.402;9.800;2022-11-15T09:18:13;5.23;;;4.10;;
12228;SDS011;6177;52.402;9.800;2022-11-15T09:21:16;3.60;;;3.30;;
12228;SDS011;6177;52.402;9.800;2022-11-15T09:24:19;4.23;;;3.93;;
12228;SDS011;6177;52.402;9.800;2022-11-15T09:27:22;4.00;;;3.50;;
12228;SDS011;6177;52.402;9.800;2022-11-15T09:30:25;4.00;;;3.77;;
12228;SDS011;6177;52.402;9.800;2022-11-15T09:33:28;4.03;;;3.60;;
12228;SDS011;6177;52.402;9.800;2022-11-15T09:36:32;4.03;;;3.47;;
12228;SDS011;6177;52.402;9.800;2022-11-15T09:39:36;3.60;;;3.23;;
12228;SDS011;6177;52.402;9.800;2022-11-15T09:49:44;3.07;;;2.97;;
12228;SDS011;6177;52.402;9.800;2022-11-15T09:52:43;3.13;;;2.90;;
12228;SDS011;6177;52.402;9.800;2022-11-15T09:55:35;3.27;;;3.07;;
12228;SDS011;6177;52.402;9.800;2022-11-15T10:01:17;3.30;;;3.20;;
12228;SDS011;6177;52.402;9.800;2022-11-15T10:04:22;3.37;;;3.00;;
12228;SDS011;6177;52.402;9.800;2022-11-15T10:07:24;3.13;;;2.97;;
12228;SDS011;6177;52.402;9.800;2022-11-15T10:10:38;3.93;;;2.93;;
12228;SDS011;6177;52.402;9.800;2022-11-15T10:13:26;3.67;;;3.37;;
12228;SDS011;6177;52.402;9.800;2022-11-15T10:25:26;2.40;;;2.30;;
12228;SDS011;6177;52.402;9.800;2022-11-15T10:28:44;3.33;;;2.70;;
12228;SDS011;6177;52.402;9.800;2022-11-15T10:31:26;3.03;;;2.73;;
12228;SDS011;6177;52.402;9.800;2022-11-15T10:34:12;2.63;;;2.30;;
12228;SDS011;6177;52.402;9.800;2022-11-15T10:36:58;3.43;;;3.00;;
12228;SDS011;6177;52.402;9.800;2022-11-15T10:39:50;2.80;;;2.70;;
12228;SDS011;6177;52.402;9.800;2022-11-15T10:43:04;2.97;;;2.77;;
12228;SDS011;6177;52.402;9.800;2022-11-15T10:45:49;2.83;;;2.63;;
12228;SDS011;6177;52.402;9.800;2022-11-15T10:48:36;2.70;;;2.60;;
12228;SDS011;6177;52.402;9.800;2022-11-15T10:51:25;2.93;;;2.73;;
12228;SDS011;6177;52.402;9.800;2022-11-15T10:54:23;2.43;;;2.33;;
12228;SDS011;6177;52.402;9.800;2022-11-15T10:57:13;2.73;;;2.37;;
12228;SDS011;6177;52.402;9.800;2022-11-15T11:00:12;2.70;;;2.50;;
12228;SDS011;6177;52.402;9.800;2022-11-15T11:03:28;3.97;;;2.20;;
12228;SDS011;6177;52.402;9.800;2022-11-15T11:06:16;3.23;;;2.40;;
12228;SDS011;6177;52.402;9.800;2022-11-15T11:09:03;2.63;;;2.53;;
12228;SDS011;6177;52.402;9.800;2022-11-15T11:11:50;3.03;;;2.77;;
12228;SDS011;6177;52.402;9.800;2022-11-15T11:14:37;2.40;;;2.20;;
12228;SDS011;6177;52.402;9.800;2022-11-15T11:17:24;2.40;;;2.33;;
12228;SDS011;6177;52.402;9.800;2022-11-15T11:20:25;2.57;;;2.30;;
12228;SDS011;6177;52.402;9.800;2022-11-15T11:23:19;3.30;;;2.70;;
12228;SDS011;6177;52.402;9.800;2022-11-15T11:35:29;2.77;;;2.53;;
12228;SDS011;6177;52.402;9.800;2022-11-15T11:41:34;2.93;;;2.77;;
12228;SDS011;6177;52.402;9.800;2022-11-15T11:44:44;2.70;;;2.50;;
12228;SDS011;6177;52.402;9.800;2022-11-15T11:48:20;4.13;;;2.77;;
12228;SDS011;6177;52.402;9.800;2022-11-15T11:51:03;3.00;;;2.67;;
12228;SDS011;6177;52.402;9.800;2022-11-15T11:54:14;4.40;;;2.60;;
12228;SDS011;6177;52.402;9.800;2022-11-15T11:57:03;3.23;;;2.90;;
12228;SDS011;6177;52.402;9.800;2022-11-15T11:59:53;3.53;;;2.97;;
12228;SDS011;6177;52.402;9.800;2022-11-15T12:02:42;3.87;;;2.57;;
12228;SDS011;6177;52.402;9.800;2022-11-15T12:11:12;2.70;;;2.20;;
12228;SDS011;6177;52.402;9.800;2022-11-15T12:14:09;2.30;;;2.23;;
12228;SDS011;6177;52.402;9.800;2022-11-15T12:17:16;2.50;;;2.40;;
12228;SDS011;6177;52.402;9.800;2022-11-15T12:23:05;3.13;;;2.87;;
12228;SDS011;6177;52.402;9.800;2022-11-15T12:31:55;2.50;;;2.30;;
12228;SDS011;6177;52.402;9.800;2022-11-15T12:34:44;2.40;;;2.30;;
12228;SDS011;6177;52.402;9.800;2022-11-15T12:46:01;2.30;;;2.20;;
12228;SDS011;6177;52.402;9.800;2022-11-15T12:48:49;2.20;;;2.10;;
12228;SDS011;6177;52.402;9.800;2022-11-15T13:03:16;2.57;;;2.37;;
12228;SDS011;6177;52.402;9.800;2022-11-15T13:06:07;2.07;;;1.97;;
12228;SDS011;6177;52.402;9.800;2022-11-15T13:08:53;2.57;;;2.37;;
12228;SDS011;6177;52.402;9.800;2022-11-15T13:11:45;2.10;;;2.00;;
12228;SDS011;6177;52.402;9.800;2022-11-15T13:14:38;1.97;;;1.87;;
12228;SDS011;6177;52.402;9.800;2022-11-15T13:17:50;3.23;;;2.20;;
12228;SDS011;6177;52.402;9.800;2022-11-15T13:20:38;2.40;;;2.20;;
12228;SDS011;6177;52.402;9.800;2022-11-15T13:23:23;2.23;;;2.20;;
12228;SDS011;6177;52.402;9.800;2022-11-15T13:26:10;2.10;;;2.03;;
12228;SDS011;6177;52.402;9.800;2022-11-15T13:28:56;3.07;;;2.27;;
12228;SDS011;6177;52.402;9.800;2022-11-15T13:31:43;2.70;;;2.20;;
12228;SDS011;6177;52.402;9.800;2022-11-15T13:34:29;2.20;;;2.00;;
12228;SDS011;6177;52.402;9.800;2022-11-15T13:40:16;2.03;;;1.90;;
12228;SDS011;6177;52.402;9.800;2022-11-15T13:43:42;2.83;;;1.90;;
12228;SDS011;6177;52.402;9.800;2022-11-15T13:46:21;2.47;;;2.37;;
12228;SDS011;6177;52.402;9.800;2022-11-15T13:49:08;2.10;;;2.00;;
12228;SDS011;6177;52.402;9.800;2022-11-15T13:51:56;2.67;;;2.20;;
12228;SDS011;6177;52.402;9.800;2022-11-15T13:57:39;2.70;;;2.17;;
12228;SDS011;6177;52.402;9.800;2022-11-15T14:00:36;2.40;;;2.30;;
12228;SDS011;6177;52.402;9.800;2022-11-15T14:03:35;2.47;;;2.37;;
12228;SDS011;6177;52.402;9.800;2022-11-15T14:06:30;2.53;;;2.33;;
12228;SDS011;6177;52.402;9.800;2022-11-15T14:09:24;4.50;;;3.20;;
12228;SDS011;6177;52.402;9.800;2022-11-15T14:12:28;3.00;;;2.37;;
12228;SDS011;6177;52.402;9.800;2022-11-15T14:15:19;2.73;;;2.53;;
12228;SDS011;6177;52.402;9.800;2022-11-15T14:21:32;2.60;;;2.37;;
12228;SDS011;6177;52.402;9.800;2022-11-15T14:24:21;2.40;;;1.87;;
12228;SDS011;6177;52.402;9.800;2022-11-15T14:27:23;2.07;;;1.97;;
12228;SDS011;6177;52.402;9.800;2022-11-15T14:30:15;2.43;;;2.33;;
12228;SDS011;6177;52.402;9.800;2022-11-15T14:33:01;2.53;;;2.30;;
12228;SDS011;6177;52.402;9.800;2022-11-15T14:35:46;2.60;;;2.40;;
12228;SDS011;6177;52.402;9.800;2022-11-15T14:38:32;4.20;;;3.80;;
12228;SDS011;6177;52.402;9.800;2022-11-15T14:41:21;3.40;;;3.00;;
12228;SDS011;6177;52.402;9.800;2022-11-15T14:44:09;3.37;;;3.17;;
12228;SDS011;6177;52.402;9.800;2022-11-15T14:46:54;2.93;;;2.70;;
12228;SDS011;6177;52.402;9.800;2022-11-15T14:49:39;2.93;;;2.63;;
12228;SDS011;6177;52.402;9.800;2022-11-15T14:58:02;2.77;;;2.60;;
12228;SDS011;6177;52.402;9.800;2022-11-15T15:00:48;2.53;;;2.37;;
12228;SDS011;6177;52.402;9.800;2022-11-15T15:03:33;2.70;;;2.50;;
12228;SDS011;6177;52.402;9.800;2022-11-15T15:06:18;5.40;;;2.87;;
12228;SDS011;6177;52.402;9.800;2022-11-15T15:09:02;3.07;;;2.77;;
12228;SDS011;6177;52.402;9.800;2022-11-15T15:11:47;4.00;;;2.90;;
12228;SDS011;6177;52.402;9.800;2022-11-15T15:14:31;4.07;;;2.47;;
12228;SDS011;6177;52.402;9.800;2022-11-15T15:17:17;2.63;;;2.43;;
12228;SDS011;6177;52.402;9.800;2022-11-15T15:20:02;3.03;;;2.70;;
12228;SDS011;6177;52.402;9.800;2022-11-15T15:22:46;2.80;;;2.50;;
12228;SDS011;6177;52.402;9.800;2022-11-15T15:25:34;4.13;;;2.43;;
12228;SDS011;6177;52.402;9.800;2022-11-15T15:28:19;1.97;;;1.97;;
12228;SDS011;6177;52.402;9.800;2022-11-15T15:31:03;2.30;;;2.20;;
12228;SDS011;6177;52.402;9.800;2022-11-15T15:33:48;2.30;;;2.20;;
12228;SDS011;6177;52.402;9.800;2022-11-15T15:36:32;2.53;;;2.43;;
12228;SDS011;6177;52.402;9.800;2022-11-15T15:39:17;2.57;;;2.37;;
12228;SDS011;6177;52.402;9.800;2022-11-15T15:42:02;2.63;;;2.53;;
12228;SDS011;6177;52.402;9.800;2022-11-15T15:44:48;2.37;;;2.23;;
12228;SDS011;6177;52.402;9.800;2022-11-15T15:47:33;2.20;;;2.10;;
12228;SDS011;6177;52.402;9.800;2022-11-15T15:50:27;2.67;;;2.50;;
12228;SDS011;6177;52.402;9.800;2022-11-15T15:53:14;2.30;;;2.20;;
12228;SDS011;6177;52.402;9.800;2022-11-15T15:55:58;3.13;;;2.83;;
12228;SDS011;6177;52.402;9.800;2022-11-15T15:58:43;3.23;;;2.97;;
12228;SDS011;6177;52.402;9.800;2022-11-15T16:01:28;6.10;;;3.27;;
12228;SDS011;6177;52.402;9.800;2022-11-15T16:04:12;3.47;;;3.27;;
12228;SDS011;6177;52.402;9.800;2022-11-15T16:07:00;4.63;;;3.50;;
12228;SDS011;6177;52.402;9.800;2022-11-15T16:09:46;9.50;;;3.60;;
12228;SDS011;6177;52.402;9.800;2022-11-15T16:12:48;4.00;;;3.70;;
12228;SDS011;6177;52.402;9.800;2022-11-15T16:15:32;3.90;;;3.50;;
12228;SDS011;6177;52.402;9.800;2022-11-15T16:18:18;4.37;;;4.07;;
12228;SDS011;6177;52.402;9.800;2022-11-15T16:21:03;4.43;;;4.10;;
12228;SDS011;6177;52.402;9.800;2022-11-15T16:23:47;4.50;;;4.20;;
12228;SDS011;6177;52.402;9.800;2022-11-15T16:26:32;4.47;;;4.17;;
12228;SDS011;6177;52.402;9.800;2022-11-15T16:29:18;6.57;;;5.90;;
12228;SDS011;6177;52.402;9.800;2022-11-15T16:32:03;5.37;;;4.97;;
12228;SDS011;6177;52.402;9.800;2022-11-15T16:34:47;5.97;;;5.37;;
12228;SDS011;6177;52.402;9.800;2022-11-15T16:37:32;5.80;;;5.10;;
12228;SDS011;6177;52.402;9.800;2022-11-15T16:40:25;7.23;;;5.10;;
12228;SDS011;6177;52.402;9.800;2022-11-15T16:43:12;5.97;;;5.33;;
12228;SDS011;6177;52.402;9.800;2022-11-15T16:45:56;7.70;;;5.83;;
12228;SDS011;6177;52.402;9.800;2022-11-15T16:48:41;6.67;;;5.80;;
12228;SDS011;6177;52.402;9.800;2022-11-15T16:51:25;7.23;;;5.70;;
12228;SDS011;6177;52.402;9.800;2022-11-15T16:54:10;7.03;;;6.30;;
12228;SDS011;6177;52.402;9.800;2022-11-15T16:56:55;7.17;;;6.53;;
12228;SDS011;6177;52.402;9.800;2022-11-15T16:59:39;6.93;;;6.23;;
12228;SDS011;6177;52.402;9.800;2022-11-15T17:02:25;7.67;;;6.10;;
12228;SDS011;6177;52.402;9.800;2022-11-15T17:05:18;6.57;;;5.97;;
12228;SDS011;6177;52.402;9.800;2022-11-15T17:08:05;6.63;;;6.17;;
12228;SDS011;6177;52.402;9.800;2022-11-15T17:10:50;7.73;;;6.37;;
12228;SDS011;6177;52.402;9.800;2022-11-15T17:13:34;7.37;;;6.63;;
12228;SDS011;6177;52.402;9.800;2022-11-15T17:16:19;8.13;;;7.43;;
12228;SDS011;6177;52.402;9.800;2022-11-15T17:19:03;8.23;;;7.50;;
12228;SDS011;6177;52.402;9.800;2022-11-15T17:21:50;6.57;;;6.07;;
12228;SDS011;6177;52.402;9.800;2022-11-15T17:24:34;8.13;;;7.33;;
12228;SDS011;6177;52.402;9.800;2022-11-15T17:27:19;8.07;;;7.30;;
12228;SDS011;6177;52.402;9.800;2022-11-15T17:30:05;8.03;;;7.23;;
12228;SDS011;6177;52.402;9.800;2022-11-15T17:32:50;7.07;;;6.47;;
12228;SDS011;6177;52.402;9.800;2022-11-15T17:35:35;7.97;;;7.40;;
12228;SDS011;6177;52.402;9.800;2022-11-15T17:38:19;8.70;;;7.93;;
12228;SDS011;6177;52.402;9.800;2022-11-15T17:41:07;8.17;;;7.43;;
12228;SDS011;6177;52.402;9.800;2022-11-15T17:43:58;9.03;;;8.27;;
12228;SDS011;6177;52.402;9.800;2022-11-15T17:46:43;13.97;;;10.37;;
12228;SDS011;6177;52.402;9.800;2022-11-15T17:49:28;9.07;;;8.37;;
12228;SDS011;6177;52.402;9.800;2022-11-15T17:52:13;8.47;;;7.50;;
12228;SDS011;6177;52.402;9.800;2022-11-15T17:54:57;8.63;;;7.83;;
12228;SDS011;6177;52.402;9.800;2022-11-15T17:57:42;7.73;;;7.03;;
12228;SDS011;6177;52.402;9.800;2022-11-15T18:00:28;8.10;;;7.40;;
12228;SDS011;6177;52.402;9.800;2022-11-15T18:03:12;10.07;;;7.97;;
12228;SDS011;6177;52.402;9.800;2022-11-15T18:05:57;8.73;;;7.83;;
12228;SDS011;6177;52.402;9.800;2022-11-15T18:08:43;9.97;;;8.90;;
12228;SDS011;6177;52.402;9.800;2022-11-15T18:11:30;9.57;;;8.50;;
12228;SDS011;6177;52.402;9.800;2022-11-15T18:14:17;10.93;;;8.67;;
12228;SDS011;6177;52.402;9.800;2022-11-15T18:17:02;9.43;;;8.40;;
12228;SDS011;6177;52.402;9.800;2022-11-15T18:19:47;8.53;;;7.83;;
12228;SDS011;6177;52.402;9.800;2022-11-15T18:22:32;9.57;;;8.77;;
12228;SDS011;6177;52.402;9.800;2022-11-15T18:25:17;8.90;;;8.10;;
12228;SDS011;6177;52.402;9.800;2022-11-15T18:28:02;10.47;;;8.50;;
12228;SDS011;6177;52.402;9.800;2022-11-15T18:30:47;9.20;;;8.40;;
12228;SDS011;6177;52.402;9.800;2022-11-15T18:33:32;12.20;;;8.93;;
12228;SDS011;6177;52.402;9.800;2022-11-15T18:36:21;8.00;;;7.30;;
12228;SDS011;6177;52.402;9.800;2022-11-15T18:39:09;9.33;;;8.53;;
12228;SDS011;6177;52.402;9.800;2022-11-15T18:41:59;9.53;;;8.53;;
12228;SDS011;6177;52.402;9.800;2022-11-15T18:44:44;8.33;;;7.53;;
12228;SDS011;6177;52.402;9.800;2022-11-15T18:47:28;9.37;;;8.43;;
12228;SDS011;6177;52.402;9.800;2022-11-15T18:50:14;10.73;;;8.80;;
12228;SDS011;6177;52.402;9.800;2022-11-15T18:53:00;10.83;;;8.77;;
12228;SDS011;6177;52.402;9.800;2022-11-15T18:55:45;9.67;;;8.37;;
12228;SDS011;6177;52.402;9.800;2022-11-15T18:58:30;8.53;;;7.73;;
12228;SDS011;6177;52.402;9.800;2022-11-15T19:01:17;9.60;;;8.67;;
12228;SDS011;6177;52.402;9.800;2022-11-15T19:04:08;7.83;;;7.20;;
12228;SDS011;6177;52.402;9.800;2022-11-15T19:06:54;8.40;;;7.60;;
12228;SDS011;6177;52.402;9.800;2022-11-15T19:09:39;7.93;;;7.23;;
12228;SDS011;6177;52.402;9.800;2022-11-15T19:12:23;7.50;;;6.80;;
12228;SDS011;6177;52.402;9.800;2022-11-15T19:15:08;8.80;;;8.20;;
12228;SDS011;6177;52.402;9.800;2022-11-15T19:17:53;7.97;;;7.33;;
12228;SDS011;6177;52.402;9.800;2022-11-15T19:20:37;8.67;;;7.73;;
12228;SDS011;6177;52.402;9.800;2022-11-15T19:23:22;9.20;;;7.73;;
12228;SDS011;6177;52.402;9.800;2022-11-15T19:26:10;9.27;;;7.93;;
12228;SDS011;6177;52.402;9.800;2022-11-15T19:28:57;7.23;;;6.63;;
12228;SDS011;6177;52.402;9.800;2022-11-15T19:31:44;7.47;;;6.77;;
12228;SDS011;6177;52.402;9.800;2022-11-15T19:34:33;7.07;;;6.43;;
12228;SDS011;6177;52.402;9.800;2022-11-15T19:37:20;7.47;;;6.77;;
12228;SDS011;6177;52.402;9.800;2022-11-15T19:40:05;8.23;;;7.40;;
12228;SDS011;6177;52.402;9.800;2022-11-15T19:42:50;9.83;;;7.43;;
12228;SDS011;6177;52.402;9.800;2022-11-15T19:45:36;7.13;;;6.53;;
12228;SDS011;6177;52.402;9.800;2022-11-15T19:48:20;8.40;;;6.67;;
12228;SDS011;6177;52.402;9.800;2022-11-15T19:51:06;7.80;;;6.73;;
12228;SDS011;6177;52.402;9.800;2022-11-15T19:53:54;6.80;;;6.30;;